Meteo Giornale » Osservazioni meteo Italia » Gioia Del Colle

ore: 17:55 - Osservazioni Meteo Gioia Del Colle
Lat. 40° 46' N Lon. 16° 56' E Alt. 345 metri s.l.m.

poco_nuvoloso Europe/Rome

15 °C

Poco Nuvoloso

Temp. 24 Ore

9 °C

19 °C

Sud/Sud-Est

14.8 Km/h

Dew point 11 °C

Umidità 76 %

Visibilità  10 Km

Il sole sorge alle ore 05:28

Il sole tramonta alle ore 20:08

Data e Ora Cielo e Fenomeni T °C DP °C Um. % Pres. hPa Vis. km Vento km/h
Oggi h: 17:55 poco_nuvoloso Poco Nuvoloso 15 11 76 1011 10 S/SE 14.8
Oggi h: 16:55 nuvoloso Nuvoloso 13 12 93 1012 9 E/SE 7.4
Oggi h: 16:22 coperto_temporali Temporale 12 11 93 1012 7 N 5.5
Oggi h: 15:55 nuvoloso_temporali Temporale con Pioggia 12 10 87 1011 5 S 24
Oggi h: 15:38 nuvoloso_temporali Temporale con Pioggia Debole 15 9 67 1011 8 S 13
Oggi h: 15:31 coperto_temporali Temporale 15 9 67 1011 10 O 13
Oggi h: 14:55 nuvoloso Nuvoloso 19 7 45 1011 10 O/SO 14.8
Oggi h: 13:55 nuvoloso Nuvoloso 18 7 48 1011 10 S/SO 20.3
Oggi h: 11:55 nuvoloso Nuvoloso 18 9 55 1011 10 S/SE 20.3
Oggi h: 10:55 nuvoloso Nuvoloso 16 8 58 1010 10 S 20.3
Oggi h: 09:55 poco_nuvoloso Poco Nuvoloso 14 9 71 1010 10 S 18.5
Oggi h: 08:55 nuvoloso Nuvoloso 13 9 76 1009 10 S 11.1
Oggi h: 07:55 molto_nuvoloso Molto Nuvoloso 13 10 81 1009 10 N 3.7
Oggi h: 06:55 nuvoloso Nuvoloso 10 10 100 1009 10 N 3.7
Oggi h: 05:55 sereno Sereno 9 8 93 1008 10 S 7.4
Oggi h: 04:55 sereno Sereno 9 9 100 1008 10 N 5.5
Oggi h: 03:55 sereno Sereno 9 9 100 1008 10 N 5.5
Oggi h: 01:55 sereno Sereno 10 9 93 1008 10 N 1.8
Oggi h: 00:55 sereno Sereno 11 8 81 1008 10 N 3.7
Ieri h: 23:55 sereno Sereno 12 8 76 1008 10 N 5.5
Ieri h: 22:55 sereno Sereno 12 9 81 1008 10 S 9.3
Ieri h: 21:55 sereno Sereno 13 9 76 1009 10 N 1.8
Ieri h: 20:55 molto_nuvoloso Molto Nuvoloso 14 13 93 1007 9 N 5.5
Ieri h: 19:55 molto_nuvoloso Molto Nuvoloso 15 13 87 1006 9 N 5.5